Madison, Maine
Current Conditions -  °F | °C
As of 4:55 AM on Friday 24 Oct 2014 (Local Time) from KWVL Reporting Station
Overcast Overcast  
Wind Chill:   Ceiling: 1300
Heat Index:   Visibility: 10mi
Dew Point:   Wind: 17mph
Humidity: 76%   Direction: 10°N
Pressure: 29.67"   Gusts: 23mph
Location:  44.8°N, 69.88°W
Report Text: KWVL 240855Z 01015G20KT 10SM OVC013 08/04 A2967 RMK AO1 60001 57003
Loading
Personal Weather Stations






























Interactive Weather Map
Tropical Storm Tracking
New forecast layout! Learn more

10-Day Weather Forecast

Advertisements
Track Severe Weather on mobile